Time;durP1;ratioP1;P1;durP2;ratioP2;P2;SDS_P1;SDS_P2;PMS_P1;PMS_P2;Temp;Humidity;BMP_temperature;BMP_pressure;BME280_temperature;BME280_humidity;BME280_pressure;Samples;Min_cycle;Max_cycle;Signal;HPM_P1;HPM_P2
2021/03/02 00:00:50;;;;;;;29.85;10.25;;;11.10;99.90;;;;;;5045146;28;20025;-61
2021/03/02 00:03:17;;;;;;;24.88;9.88;;;11.10;99.90;;;;;;5046807;28;20043;-61
2021/03/02 00:05:46;;;;;;;29.10;10.30;;;11.20;99.90;;;;;;5042714;28;20049;-62
2021/03/02 00:08:13;;;;;;;15.52;8.82;;;11.20;99.90;;;;;;5046979;28;20033;-63
2021/03/02 00:10:42;;;;;;;21.00;9.55;;;11.20;99.90;;;;;;5043394;28;20017;-62
2021/03/02 00:13:10;;;;;;;26.92;9.20;;;11.20;99.90;;;;;;5047671;28;20098;-61
2021/03/02 00:15:35;;;;;;;20.83;9.23;;;11.10;99.90;;;;;;5042747;28;20104;-62
2021/03/02 00:18:02;;;;;;;27.30;10.02;;;11.10;99.90;;;;;;5047673;28;20136;-61
2021/03/02 00:20:34;;;;;;;23.77;9.63;;;11.10;99.90;;;;;;5040565;28;20021;-61
2021/03/02 00:23:01;;;;;;;25.88;9.82;;;11.10;99.90;;;;;;5035351;28;20511;-62
2021/03/02 00:25:29;;;;;;;24.90;9.27;;;11.10;99.90;;;;;;5041954;28;20033;-61
2021/03/02 00:27:56;;;;;;;26.77;8.57;;;11.10;99.90;;;;;;5047506;28;20025;-61
2021/03/02 00:30:23;;;;;;;23.15;10.02;;;11.10;99.90;;;;;;5041911;28;20420;-62
2021/03/02 00:32:51;;;;;;;30.45;9.70;;;11.20;99.90;;;;;;5047368;28;20033;-61
2021/03/02 00:35:17;;;;;;;28.02;9.07;;;11.10;99.90;;;;;;5041490;28;20523;-61
2021/03/02 00:37:47;;;;;;;32.92;9.75;;;10.90;99.90;;;;;;5047014;28;20037;-62
2021/03/02 00:40:13;;;;;;;21.85;8.32;;;11.00;99.90;;;;;;5041839;28;20044;-62
2021/03/02 00:42:38;;;;;;;23.40;9.00;;;11.10;99.90;;;;;;5047125;28;20024;-62
2021/03/02 00:45:05;;;;;;;22.23;8.45;;;11.00;99.90;;;;;;5041171;28;20043;-61
2021/03/02 00:47:31;;;;;;;19.95;8.88;;;11.10;99.90;;;;;;5047927;28;20021;-61
2021/03/02 00:49:57;;;;;;;21.00;8.18;;;11.00;99.90;;;;;;5041075;28;20106;-62
2021/03/02 00:52:22;;;;;;;27.88;9.07;;;11.00;99.90;;;;;;5047902;28;20029;-62
2021/03/02 00:54:48;;;;;;;21.55;7.88;;;11.00;99.90;;;;;;5039724;28;20112;-61
2021/03/02 00:57:13;;;;;;;18.73;7.22;;;11.00;99.90;;;;;;5049070;28;20056;-61
2021/03/02 00:59:39;;;;;;;17.75;7.57;;;11.00;99.90;;;;;;5039195;28;20052;-61
2021/03/02 01:02:05;;;;;;;22.65;8.07;;;11.00;99.90;;;;;;5049663;28;20064;-61
2021/03/02 01:04:30;;;;;;;16.35;7.70;;;11.00;99.90;;;;;;5041669;28;20140;-62
2021/03/02 01:06:56;;;;;;;19.20;7.30;;;10.90;99.90;;;;;;5028434;28;20038;-61
2021/03/02 01:09:22;;;;;;;20.75;7.40;;;11.00;99.90;;;;;;5036654;28;20029;-62
2021/03/02 01:11:47;;;;;;;23.70;7.60;;;10.90;99.90;;;;;;5050078;28;20040;-62
2021/03/02 01:14:14;;;;;;;20.75;7.68;;;10.90;99.90;;;;;;5037592;28;20029;-62
2021/03/02 01:16:40;;;;;;;21.17;7.68;;;10.90;99.90;;;;;;5050048;28;20059;-62
2021/03/02 01:19:05;;;;;;;18.48;7.28;;;10.90;99.90;;;;;;5038940;28;20037;-61
2021/03/02 01:21:31;;;;;;;19.65;7.93;;;10.90;99.90;;;;;;5048144;28;20021;-62
2021/03/02 01:23:57;;;;;;;22.60;7.45;;;10.90;99.90;;;;;;5039715;28;20494;-62
2021/03/02 01:26:22;;;;;;;18.73;6.85;;;10.90;99.90;;;;;;5047590;28;20044;-62
2021/03/02 01:28:48;;;;;;;20.55;6.93;;;10.80;99.90;;;;;;5040717;28;20401;-62
2021/03/02 01:31:14;;;;;;;16.25;7.45;;;10.80;99.90;;;;;;5046362;28;20032;-61
2021/03/02 01:33:39;;;;;;;19.67;7.07;;;10.70;99.90;;;;;;5041911;28;20026;-62
2021/03/02 01:36:05;;;;;;;14.70;7.20;;;10.70;99.90;;;;;;5029073;28;20033;-62
2021/03/02 01:38:31;;;;;;;19.33;6.22;;;10.70;99.90;;;;;;5034857;28;20029;-62
2021/03/02 01:40:56;;;;;;;15.07;5.72;;;10.80;99.90;;;;;;5043939;28;20037;-62
2021/03/02 01:43:22;;;;;;;16.02;6.40;;;10.70;99.90;;;;;;5043791;28;20401;-62
2021/03/02 01:45:48;;;;;;;15.40;5.70;;;10.70;99.90;;;;;;5042405;28;20036;-61
2021/03/02 01:48:13;;;;;;;16.88;6.72;;;10.60;99.90;;;;;;5045340;28;20021;-62
2021/03/02 01:50:39;;;;;;;17.25;6.32;;;10.60;99.90;;;;;;5036175;28;20077;-61
2021/03/02 01:53:05;;;;;;;13.77;6.38;;;10.70;99.90;;;;;;5032767;28;20025;-62
2021/03/02 01:55:31;;;;;;;22.33;6.63;;;10.70;99.90;;;;;;5040089;28;20428;-62
2021/03/02 01:57:56;;;;;;;18.85;6.20;;;10.70;99.90;;;;;;5045853;28;20060;-62
2021/03/02 02:00:35;;;;;;;11.27;6.28;;;10.70;99.90;;;;;;5040287;28;20505;-62
2021/03/02 02:03:24;;;;;;;14.10;5.78;;;10.60;99.90;;;;;;5046014;28;20028;-61
2021/03/02 02:06:30;;;;;;;14.10;6.03;;;10.60;99.90;;;;;;5034815;28;20037;-61
2021/03/02 02:09:24;;;;;;;15.93;6.43;;;10.60;99.90;;;;;;5039108;28;20068;-62
2021/03/02 02:12:08;;;;;;;20.60;5.97;;;10.60;99.90;;;;;;5010786;28;20040;-62
2021/03/02 02:14:43;;;;;;;11.38;5.20;;;10.60;99.90;;;;;;5040654;28;20037;-62
2021/03/02 02:17:18;;;;;;;13.38;5.80;;;10.60;99.90;;;;;;5028711;28;20117;-61
2021/03/02 02:19:47;;;;;;;13.07;5.07;;;10.50;99.90;;;;;;5039927;28;20509;-62
2021/03/02 02:22:34;;;;;;;10.65;5.38;;;10.50;99.90;;;;;;5028173;28;20018;-61
2021/03/02 02:25:12;;;;;;;16.60;5.85;;;10.50;99.90;;;;;;5039249;28;20021;-62
2021/03/02 02:27:38;;;;;;;15.60;5.78;;;10.60;99.90;;;;;;5045595;28;20032;-61
2021/03/02 02:30:05;;;;;;;18.45;6.20;;;10.70;99.90;;;;;;5033985;28;20052;-61
2021/03/02 02:32:32;;;;;;;15.48;6.07;;;10.60;99.90;;;;;;5030024;28;20029;-61
2021/03/02 02:35:00;;;;;;;22.70;6.57;;;10.40;99.90;;;;;;5039308;28;20025;-62
2021/03/02 02:37:28;;;;;;;16.70;5.70;;;10.60;99.90;;;;;;5046441;28;20029;-61
2021/03/02 02:39:56;;;;;;;12.38;5.50;;;10.50;99.90;;;;;;5038637;28;20039;-62
2021/03/02 02:42:23;;;;;;;11.65;5.63;;;10.50;99.90;;;;;;5047522;28;20037;-61
2021/03/02 02:44:50;;;;;;;23.63;6.53;;;10.60;99.90;;;;;;5035712;28;20028;-62
2021/03/02 02:47:18;;;;;;;14.43;5.30;;;10.50;99.90;;;;;;5047636;28;20531;-62
2021/03/02 02:49:46;;;;;;;19.10;6.03;;;10.40;99.90;;;;;;5037752;28;20102;-62
2021/03/02 02:52:16;;;;;;;14.02;5.50;;;10.50;99.90;;;;;;5047016;28;20028;-61
2021/03/02 02:54:53;;;;;;;14.63;5.57;;;10.50;99.90;;;;;;5038905;28;20040;-61
2021/03/02 02:57:20;;;;;;;12.80;6.18;;;10.50;99.90;;;;;;5011565;28;20528;-62
2021/03/02 02:59:49;;;;;;;21.92;6.32;;;10.50;99.90;;;;;;5037708;28;20021;-62
2021/03/02 03:02:19;;;;;;;16.60;6.47;;;10.40;99.90;;;;;;5047590;28;20028;-62
2021/03/02 03:05:17;;;;;;;16.63;5.78;;;10.60;99.90;;;;;;5037268;28;20091;-61
2021/03/02 03:07:47;;;;;;;12.77;5.72;;;10.40;99.90;;;;;;5040345;28;20067;-61
2021/03/02 03:10:14;;;;;;;8.90;5.53;;;10.40;99.90;;;;;;5039927;28;20547;-61
2021/03/02 03:12:43;;;;;;;15.77;5.05;;;10.60;99.90;;;;;;5044844;28;20096;-61
2021/03/02 03:15:12;;;;;;;19.38;5.20;;;10.50;99.90;;;;;;5039680;28;20021;-61
2021/03/02 03:17:42;;;;;;;16.92;5.78;;;10.50;99.90;;;;;;5045490;28;20040;-62
2021/03/02 03:20:11;;;;;;;11.25;5.10;;;10.40;99.90;;;;;;5033510;28;20485;-62
2021/03/02 03:22:39;;;;;;;19.15;5.30;;;10.40;99.90;;;;;;5029254;28;20626;-61
2021/03/02 03:25:06;;;;;;;13.23;4.57;;;10.40;99.90;;;;;;5032929;28;20626;-61
2021/03/02 03:27:34;;;;;;;14.00;4.90;;;10.50;99.90;;;;;;5029351;28;20040;-62
2021/03/02 03:30:01;;;;;;;15.27;5.10;;;10.40;99.90;;;;;;5041439;28;20083;-62
2021/03/02 03:32:28;;;;;;;14.82;5.22;;;10.30;99.90;;;;;;5050152;28;20024;-62
2021/03/02 03:34:55;;;;;;;12.15;4.65;;;10.50;99.90;;;;;;5041773;28;20025;-62
2021/03/02 03:37:21;;;;;;;18.17;4.78;;;10.60;99.90;;;;;;5049834;28;20055;-62
2021/03/02 03:39:47;;;;;;;12.07;5.15;;;10.40;99.90;;;;;;5040999;28;20052;-61
2021/03/02 03:42:13;;;;;;;13.23;4.35;;;10.40;99.90;;;;;;5050113;28;20472;-61
2021/03/02 03:44:38;;;;;;;12.77;4.95;;;10.40;99.90;;;;;;5036277;28;20517;-61
2021/03/02 03:47:05;;;;;;;12.65;5.10;;;10.40;99.90;;;;;;5031600;28;20046;-61
2021/03/02 03:49:31;;;;;;;16.67;5.07;;;10.60;99.90;;;;;;5039104;28;20025;-62
2021/03/02 03:51:58;;;;;;;13.45;5.10;;;10.50;99.90;;;;;;5049588;28;20033;-61
2021/03/02 03:54:26;;;;;;;14.90;4.85;;;10.40;99.90;;;;;;5039031;28;20052;-62
2021/03/02 03:56:55;;;;;;;10.88;4.63;;;10.50;99.90;;;;;;5051321;28;20043;-62
2021/03/02 03:59:24;;;;;;;17.85;4.82;;;10.50;99.90;;;;;;5039481;28;20030;-61
2021/03/02 04:01:50;;;;;;;19.17;6.00;;;10.40;99.90;;;;;;5051531;28;20083;-61
2021/03/02 04:04:17;;;;;;;19.20;6.18;;;10.40;99.90;;;;;;5038909;28;20072;-61
2021/03/02 04:06:44;;;;;;;12.82;5.18;;;10.40;99.90;;;;;;5050519;28;20551;-62
2021/03/02 04:09:10;;;;;;;14.38;4.50;;;10.50;99.90;;;;;;5039947;28;20036;-62
2021/03/02 04:11:36;;;;;;;13.50;4.95;;;10.40;99.90;;;;;;5050636;28;20168;-61
2021/03/02 04:14:02;;;;;;;11.82;4.90;;;10.50;99.90;;;;;;5040664;28;20112;-61
2021/03/02 04:16:28;;;;;;;14.75;4.53;;;10.40;99.90;;;;;;5030980;28;20036;-62
2021/03/02 04:18:56;;;;;;;15.00;5.32;;;10.30;99.90;;;;;;5036594;28;20022;-61
2021/03/02 04:21:21;;;;;;;10.80;4.88;;;10.50;99.90;;;;;;5047792;28;20504;-61
2021/03/02 04:23:47;;;;;;;15.13;5.70;;;10.30;99.90;;;;;;5042561;28;20026;-61
2021/03/02 04:26:13;;;;;;;15.27;5.45;;;10.50;99.90;;;;;;5046833;28;20163;-61
2021/03/02 04:28:38;;;;;;;11.73;4.88;;;10.40;99.90;;;;;;5043509;28;20112;-61
2021/03/02 04:31:04;;;;;;;13.32;5.32;;;10.30;99.90;;;;;;5045885;28;20091;-61
2021/03/02 04:33:29;;;;;;;14.25;4.93;;;10.40;99.90;;;;;;5044985;28;20519;-62
2021/03/02 04:35:55;;;;;;;21.33;5.45;;;10.40;99.90;;;;;;5043809;28;20385;-61
2021/03/02 04:38:21;;;;;;;13.63;5.53;;;10.40;99.90;;;;;;5045445;28;20025;-61
2021/03/02 04:40:46;;;;;;;12.63;5.07;;;10.20;99.90;;;;;;5043323;28;20025;-61
2021/03/02 04:43:12;;;;;;;22.08;4.82;;;10.30;99.90;;;;;;5046344;28;20021;-62
2021/03/02 04:45:38;;;;;;;12.95;4.68;;;10.40;99.90;;;;;;5041871;28;20032;-61
2021/03/02 04:48:04;;;;;;;20.35;5.43;;;10.40;99.90;;;;;;5046933;28;20032;-61
2021/03/02 04:50:29;;;;;;;14.02;4.85;;;10.20;99.90;;;;;;5030530;28;20568;-61
2021/03/02 04:52:55;;;;;;;10.88;4.60;;;10.30;99.90;;;;;;5033368;28;20044;-61
2021/03/02 04:55:21;;;;;;;17.85;5.22;;;10.20;99.90;;;;;;5041737;28;20025;-61
2021/03/02 04:57:46;;;;;;;19.58;5.22;;;10.40;99.90;;;;;;5046713;28;20033;-62
2021/03/02 05:00:12;;;;;;;13.70;4.82;;;10.30;99.90;;;;;;5041238;28;20037;-61
2021/03/02 05:02:38;;;;;;;15.13;5.20;;;10.30;99.90;;;;;;5034950;28;20067;-61
2021/03/02 05:05:05;;;;;;;13.77;4.82;;;10.30;99.90;;;;;;5040847;28;20053;-61
2021/03/02 05:07:31;;;;;;;13.30;4.25;;;10.30;99.90;;;;;;5030280;28;20086;-62
2021/03/02 05:09:56;;;;;;;13.57;4.43;;;10.30;99.90;;;;;;5034477;28;20026;-61
2021/03/02 05:12:22;;;;;;;9.18;4.32;;;10.30;99.90;;;;;;5030513;28;20319;-62
2021/03/02 05:14:48;;;;;;;16.05;4.07;;;10.40;99.90;;;;;;5038838;28;20029;-62
2021/03/02 05:17:13;;;;;;;12.25;3.70;;;10.40;99.90;;;;;;5049257;28;20361;-61
2021/03/02 05:19:39;;;;;;;16.08;5.00;;;10.20;99.90;;;;;;5038582;28;20031;-61
2021/03/02 05:22:05;;;;;;;9.75;4.07;;;10.40;99.90;;;;;;5049108;28;20029;-61
2021/03/02 05:24:30;;;;;;;10.23;3.95;;;10.40;99.90;;;;;;5037151;28;20804;-61
2021/03/02 05:26:56;;;;;;;10.00;3.97;;;10.30;99.90;;;;;;5036771;28;20037;-62
2021/03/02 05:29:22;;;;;;;12.25;3.70;;;10.40;99.90;;;;;;5032349;28;20025;-61
2021/03/02 05:31:48;;;;;;;8.43;3.60;;;10.40;99.90;;;;;;5037660;28;20052;-62
2021/03/02 05:34:14;;;;;;;11.52;3.28;;;10.20;99.90;;;;;;5035010;28;20629;-62
2021/03/02 05:36:39;;;;;;;14.48;4.13;;;10.40;99.90;;;;;;5035835;28;20529;-61
2021/03/02 05:39:06;;;;;;;16.52;4.13;;;10.30;99.90;;;;;;5034830;28;20632;-61
2021/03/02 05:41:33;;;;;;;10.40;3.42;;;10.30;99.90;;;;;;5048308;28;20021;-61
2021/03/02 05:43:59;;;;;;;8.50;4.07;;;10.30;99.90;;;;;;5038656;28;20034;-61
2021/03/02 05:46:25;;;;;;;15.88;4.93;;;10.40;99.90;;;;;;5046804;28;20429;-62
2021/03/02 05:48:52;;;;;;;13.40;3.40;;;10.40;99.90;;;;;;5040782;28;20167;-62
2021/03/02 05:51:18;;;;;;;7.78;3.33;;;10.40;99.90;;;;;;5036455;28;20029;-62
2021/03/02 05:53:44;;;;;;;7.80;3.30;;;10.30;99.90;;;;;;5034410;28;20112;-62
2021/03/02 05:56:10;;;;;;;22.85;4.57;;;10.40;99.90;;;;;;5038842;28;20204;-61
2021/03/02 05:58:36;;;;;;;11.38;3.10;;;10.40;99.90;;;;;;5034608;28;20034;-61
2021/03/02 06:01:04;;;;;;;11.68;3.65;;;10.40;99.90;;;;;;5043380;28;20060;-61
2021/03/02 06:03:33;;;;;;;10.25;3.20;;;10.40;99.90;;;;;;5043433;28;20036;-61
2021/03/02 06:05:58;;;;;;;13.45;3.35;;;10.30;99.90;;;;;;5042282;28;20083;-61
2021/03/02 06:08:24;;;;;;;14.02;3.15;;;10.40;99.90;;;;;;5044208;28;20025;-61
2021/03/02 06:10:50;;;;;;;17.67;3.75;;;10.40;99.90;;;;;;5042013;28;20481;-61
2021/03/02 06:13:28;;;;;;;13.07;4.18;;;10.40;99.90;;;;;;5040452;28;20022;-61
2021/03/02 06:15:55;;;;;;;15.00;4.35;;;10.20;99.90;;;;;;5032374;28;20465;-61
2021/03/02 06:18:21;;;;;;;9.07;4.28;;;10.20;99.90;;;;;;5029588;28;20029;-61
2021/03/02 06:20:48;;;;;;;11.90;4.57;;;10.20;99.90;;;;;;5027363;28;20026;-61
2021/03/02 06:23:47;;;;;;;17.63;5.35;;;10.20;99.90;;;;;;5029631;28;20037;-61
2021/03/02 06:26:24;;;;;;;5.20;4.47;;;10.20;99.90;;;;;;5027868;28;20109;-61
2021/03/02 06:28:57;;;;;;;17.60;5.32;;;10.20;99.90;;;;;;5027625;28;20029;-61
2021/03/02 06:31:36;;;;;;;15.50;5.10;;;10.20;99.90;;;;;;5027414;28;20076;-61
2021/03/02 06:34:06;;;;;;;11.23;4.53;;;10.20;99.90;;;;;;5028239;28;20512;-61
2021/03/02 06:36:32;;;;;;;9.20;5.35;;;10.20;99.90;;;;;;5027202;28;20518;-61
2021/03/02 06:38:58;;;;;;;14.50;5.32;;;10.20;99.90;;;;;;5028859;28;20498;-61
2021/03/02 06:41:23;;;;;;;15.52;5.07;;;10.20;99.90;;;;;;5030199;28;20120;-61
2021/03/02 06:43:49;;;;;;;21.45;5.07;;;10.20;99.90;;;;;;5028050;28;20624;-61
2021/03/02 06:46:15;;;;;;;17.25;5.25;;;10.30;99.90;;;;;;5028366;28;20068;-61
2021/03/02 06:48:52;;;;;;;14.27;5.30;;;10.20;99.90;;;;;;5029573;28;20053;-61
2021/03/02 06:51:29;;;;;;;11.00;4.43;;;10.20;99.90;;;;;;5027675;28;20518;-61
2021/03/02 06:54:11;;;;;;;7.70;4.25;;;10.30;99.90;;;;;;5030255;28;20022;-62
2021/03/02 06:56:40;;;;;;;8.68;4.70;;;10.30;99.90;;;;;;5047720;28;20021;-62
2021/03/02 06:59:24;;;;;;;14.02;5.20;;;10.30;99.90;;;;;;5037664;28;20048;-62
2021/03/02 07:01:50;;;;;;;19.00;4.72;;;10.20;99.90;;;;;;5009190;28;20018;-61
2021/03/02 07:04:20;;;;;;;13.35;5.28;;;10.30;99.90;;;;;;5032538;28;20052;-62
2021/03/02 07:06:54;;;;;;;9.57;4.47;;;10.30;99.90;;;;;;5011965;28;20040;-62
2021/03/02 07:09:21;;;;;;;10.35;5.65;;;10.30;99.90;;;;;;5035685;28;20039;-62
2021/03/02 07:11:47;;;;;;;14.15;4.70;;;10.20;99.90;;;;;;5052668;28;20021;-62
2021/03/02 07:14:14;;;;;;;8.57;4.50;;;10.50;99.90;;;;;;5040937;28;20485;-62
2021/03/02 07:16:48;;;;;;;17.35;5.65;;;10.30;99.90;;;;;;5051738;28;20048;-62
2021/03/02 07:19:19;;;;;;;9.13;4.60;;;10.50;99.90;;;;;;5043505;28;20049;-62
2021/03/02 07:21:50;;;;;;;14.85;4.70;;;10.30;99.90;;;;;;5014852;28;20029;-62
2021/03/02 07:24:18;;;;;;;18.73;5.35;;;10.30;99.90;;;;;;5033604;28;20490;-62
2021/03/02 07:26:46;;;;;;;13.05;4.60;;;10.40;99.90;;;;;;5051909;28;20409;-62
2021/03/02 07:29:12;;;;;;;12.57;4.32;;;10.40;99.90;;;;;;5040888;28;20024;-62
2021/03/02 07:31:38;;;;;;;11.20;3.90;;;10.50;99.90;;;;;;5051169;28;20056;-62
2021/03/02 07:34:10;;;;;;;17.25;4.20;;;10.60;99.90;;;;;;5041463;28;20030;-62
2021/03/02 07:36:40;;;;;;;15.23;4.90;;;10.50;99.90;;;;;;5030316;28;20048;-62
2021/03/02 07:39:20;;;;;;;11.52;4.43;;;10.50;99.90;;;;;;5034227;28;20033;-62
2021/03/02 07:41:47;;;;;;;11.93;4.45;;;10.60;99.90;;;;;;5030681;28;20056;-62
2021/03/02 07:44:13;;;;;;;14.98;5.00;;;10.60;99.90;;;;;;5033939;28;20018;-62
2021/03/02 07:46:42;;;;;;;15.70;4.75;;;10.60;99.90;;;;;;5031125;28;20091;-62
2021/03/02 07:49:31;;;;;;;9.65;4.20;;;10.50;99.90;;;;;;5033269;28;20117;-62
2021/03/02 07:52:00;;;;;;;8.95;4.10;;;10.60;99.90;;;;;;5030376;28;20528;-62
2021/03/02 07:54:26;;;;;;;13.70;4.25;;;10.60;99.90;;;;;;5037174;28;20025;-62
2021/03/02 07:57:13;;;;;;;10.55;4.53;;;10.70;99.90;;;;;;5051456;28;20056;-62
2021/03/02 07:59:40;;;;;;;12.57;4.85;;;10.70;99.90;;;;;;5036960;28;20036;-62
2021/03/02 08:02:19;;;;;;;9.27;4.20;;;10.70;99.90;;;;;;5030493;28;20064;-62
2021/03/02 08:04:50;;;;;;;11.68;4.13;;;10.70;99.90;;;;;;5031897;28;20136;-62
2021/03/02 08:07:24;;;;;;;12.75;4.65;;;10.70;99.90;;;;;;5028904;28;20560;-62
2021/03/02 08:09:52;;;;;;;12.38;5.03;;;10.70;99.90;;;;;;5040421;28;20025;-63
2021/03/02 08:12:31;;;;;;;15.30;4.72;;;10.80;99.90;;;;;;5048479;28;20040;-62
2021/03/02 08:14:58;;;;;;;17.85;5.72;;;10.90;99.90;;;;;;5038400;28;20028;-62
2021/03/02 08:17:25;;;;;;;17.17;5.97;;;10.90;99.90;;;;;;5049932;28;20511;-62
2021/03/02 08:20:20;;;;;;;28.70;8.50;;;10.90;99.90;;;;;;5039889;28;20021;-62
2021/03/02 08:22:46;;;;;;;15.38;4.65;;;10.90;99.90;;;;;;5042132;28;20524;-62
2021/03/02 08:25:27;;;;;;;26.15;5.88;;;11.00;99.90;;;;;;5042221;28;20510;-62
2021/03/02 08:27:59;;;;;;;13.18;6.05;;;11.00;99.90;;;;;;5047597;28;20037;-62
2021/03/02 08:30:37;;;;;;;12.27;4.78;;;11.10;99.90;;;;;;5042109;28;20028;-65
2021/03/02 08:33:08;;;;;;;15.45;5.03;;;11.10;99.90;;;;;;5047147;28;20439;-62
2021/03/02 08:35:40;;;;;;;12.60;5.32;;;11.10;99.90;;;;;;5041060;28;20009;-62
2021/03/02 08:38:07;;;;;;;18.38;5.32;;;11.20;99.90;;;;;;5047224;28;20438;-62
2021/03/02 08:40:33;;;;;;;16.98;6.05;;;11.20;99.90;;;;;;5035307;28;20025;-62
2021/03/02 08:43:05;;;;;;;11.20;4.25;;;11.40;99.90;;;;;;5033009;28;20052;-62
2021/03/02 08:45:35;;;;;;;12.45;5.38;;;11.30;99.90;;;;;;5030969;28;20042;-63
2021/03/02 08:48:12;;;;;;;12.60;5.35;;;11.50;99.90;;;;;;5034012;28;20072;-62
2021/03/02 08:50:38;;;;;;;11.98;4.30;;;11.50;99.90;;;;;;5040895;28;20086;-62
2021/03/02 08:53:04;;;;;;;16.45;5.13;;;11.40;99.90;;;;;;5046733;28;20026;-62
2021/03/02 08:55:37;;;;;;;8.75;4.45;;;11.50;99.90;;;;;;5041753;28;20017;-63
2021/03/02 08:58:03;;;;;;;8.20;4.40;;;11.40;99.90;;;;;;5038884;28;20026;-61
2021/03/02 09:00:29;;;;;;;14.07;4.65;;;11.50;99.90;;;;;;5031430;28;20063;-62
2021/03/02 09:02:55;;;;;;;11.65;4.43;;;11.50;99.90;;;;;;5032363;28;20055;-62
2021/03/02 09:05:20;;;;;;;8.68;4.47;;;11.60;99.90;;;;;;5029656;28;20053;-61
2021/03/02 09:08:05;;;;;;;7.68;4.30;;;11.70;99.90;;;;;;5030269;28;20094;-62
2021/03/02 09:10:31;;;;;;;9.65;5.00;;;11.80;99.90;;;;;;5028388;28;20028;-62
2021/03/02 09:12:57;;;;;;;12.02;5.00;;;12.00;99.90;;;;;;5031873;28;20036;-62
2021/03/02 09:15:42;;;;;;;10.05;4.35;;;11.90;99.90;;;;;;5030201;28;20021;-61
2021/03/02 09:18:17;;;;;;;11.40;4.05;;;12.10;99.90;;;;;;5031718;28;20362;-61
2021/03/02 09:20:50;;;;;;;8.82;4.75;;;12.30;99.90;;;;;;5028523;28;20421;-62
2021/03/02 09:23:16;;;;;;;15.40;4.95;;;12.40;99.90;;;;;;5029993;28;20021;-62
2021/03/02 09:25:43;;;;;;;15.88;4.95;;;12.40;99.90;;;;;;5029694;28;20068;-62
2021/03/02 09:28:16;;;;;;;12.88;4.32;;;12.50;99.90;;;;;;5028747;28;20017;-61
2021/03/02 09:30:42;;;;;;;9.48;4.78;;;12.60;99.90;;;;;;5029820;28;20120;-62
2021/03/02 09:33:09;;;;;;;13.23;4.95;;;12.40;99.90;;;;;;5033776;28;20036;-62
2021/03/02 09:35:35;;;;;;;42.35;5.72;;;12.50;99.90;;;;;;5039982;28;20112;-63
2021/03/02 09:38:00;;;;;;;13.55;5.13;;;12.80;99.90;;;;;;5046084;28;20120;-62
2021/03/02 09:40:26;;;;;;;12.73;5.07;;;12.90;99.90;;;;;;5040943;28;20033;-62
2021/03/02 09:42:54;;;;;;;13.80;4.20;;;12.90;99.90;;;;;;5045886;28;20102;-62
2021/03/02 09:45:21;;;;;;;15.45;5.22;;;12.90;99.90;;;;;;5039148;28;20040;-62
2021/03/02 09:47:56;;;;;;;9.15;4.80;;;12.80;99.90;;;;;;5046279;28;20039;-61
2021/03/02 09:50:22;;;;;;;8.43;4.78;;;12.70;99.90;;;;;;5039895;28;20616;-62
2021/03/02 09:52:52;;;;;;;17.67;5.30;;;12.80;99.90;;;;;;5030690;28;20033;-61
2021/03/02 09:55:27;;;;;;;14.55;4.85;;;12.90;99.90;;;;;;5038499;28;20033;-61
2021/03/02 09:58:06;;;;;;;21.48;5.50;;;13.10;99.90;;;;;;5029002;28;20027;-61
2021/03/02 10:00:45;;;;;;;13.82;4.50;;;13.10;99.90;;;;;;5029612;28;20017;-61
2021/03/02 10:03:12;;;;;;;16.33;5.05;;;13.20;99.90;;;;;;5031649;28;20026;-61
2021/03/02 10:05:39;;;;;;;16.63;5.03;;;13.20;99.90;;;;;;5028445;28;20041;-62
2021/03/02 10:08:18;;;;;;;10.50;4.65;;;13.40;99.90;;;;;;5032629;28;20604;-62
2021/03/02 10:10:44;;;;;;;11.13;4.80;;;13.50;99.90;;;;;;5032203;28;20037;-65
2021/03/02 10:13:10;;;;;;;16.95;5.18;;;13.50;99.90;;;;;;5045605;28;20448;-61
2021/03/02 10:15:36;;;;;;;9.95;5.32;;;13.60;99.90;;;;;;5038685;28;20607;-61
2021/03/02 10:18:21;;;;;;;9.90;4.65;;;13.80;99.90;;;;;;5030154;28;20038;-61
2021/03/02 10:21:08;;;;;;;12.80;4.85;;;13.80;99.90;;;;;;5028177;28;20612;-61
2021/03/02 10:23:40;;;;;;;16.10;5.25;;;13.70;99.90;;;;;;5030138;28;20419;-62
2021/03/02 10:26:06;;;;;;;10.27;5.05;;;13.70;99.90;;;;;;5030123;28;20502;-61
2021/03/02 10:28:33;;;;;;;13.27;5.10;;;13.50;99.90;;;;;;5033831;28;20060;-62
2021/03/02 10:30:59;;;;;;;18.90;5.10;;;14.00;99.90;;;;;;5042034;28;20028;-61
2021/03/02 10:33:25;;;;;;;12.57;5.15;;;13.70;99.90;;;;;;5044513;28;20029;-61
2021/03/02 10:35:51;;;;;;;16.00;5.30;;;14.00;99.90;;;;;;5040258;28;20685;-61
2021/03/02 10:38:17;;;;;;;14.48;5.60;;;13.50;99.90;;;;;;5046934;28;20599;-61
2021/03/02 10:40:43;;;;;;;18.70;5.35;;;13.50;99.90;;;;;;5044063;28;20036;-62
2021/03/02 10:43:08;;;;;;;13.00;5.72;;;13.30;99.90;;;;;;5048508;28;20666;-62
2021/03/02 10:45:34;;;;;;;13.77;4.95;;;13.30;99.90;;;;;;5042761;28;20448;-61
2021/03/02 10:48:00;;;;;;;16.40;5.82;;;13.40;99.90;;;;;;5049297;28;20052;-61
2021/03/02 10:50:26;;;;;;;12.55;5.40;;;13.50;99.90;;;;;;5043075;28;20045;-62
2021/03/02 10:52:51;;;;;;;10.90;5.47;;;13.30;99.90;;;;;;5049027;28;20460;-62
2021/03/02 10:55:17;;;;;;;15.57;5.63;;;13.50;99.90;;;;;;5043906;28;20029;-62
2021/03/02 10:57:42;;;;;;;10.35;5.32;;;13.30;99.90;;;;;;5049650;28;20064;-62
2021/03/02 11:00:09;;;;;;;15.30;5.60;;;13.20;99.90;;;;;;5043294;28;20022;-62
2021/03/02 11:02:34;;;;;;;16.33;5.93;;;13.20;99.90;;;;;;5050896;28;20033;-62
2021/03/02 11:05:00;;;;;;;15.60;6.25;;;13.10;99.90;;;;;;5041751;28;20056;-61
2021/03/02 11:07:26;;;;;;;11.80;5.35;;;13.00;99.90;;;;;;5050792;28;20028;-61
2021/03/02 11:09:51;;;;;;;13.15;5.63;;;13.10;99.90;;;;;;5041319;28;20087;-62
2021/03/02 11:12:17;;;;;;;12.30;5.55;;;13.30;99.90;;;;;;5051445;28;20094;-61
2021/03/02 11:14:44;;;;;;;14.35;5.50;;;13.30;99.90;;;;;;5037985;28;20664;-61
2021/03/02 11:17:10;;;;;;;9.93;4.85;;;13.30;99.90;;;;;;5026317;28;20021;-61
2021/03/02 11:19:36;;;;;;;12.30;5.90;;;13.30;99.90;;;;;;5037626;28;20509;-62
2021/03/02 11:22:01;;;;;;;20.13;5.57;;;13.20;99.90;;;;;;5030744;28;20667;-61
2021/03/02 11:24:27;;;;;;;15.80;4.88;;;13.40;99.90;;;;;;5034353;28;20498;-62
2021/03/02 11:26:53;;;;;;;17.00;4.75;;;13.30;99.90;;;;;;5032438;28;20061;-61
2021/03/02 11:29:18;;;;;;;10.80;4.78;;;13.30;99.90;;;;;;5034241;28;20024;-61
2021/03/02 11:31:44;;;;;;;13.35;4.88;;;13.50;99.90;;;;;;5032394;28;20029;-62
2021/03/02 11:34:10;;;;;;;18.70;4.95;;;13.30;99.90;;;;;;5034114;28;20109;-62
2021/03/02 11:36:36;;;;;;;14.13;5.40;;;13.50;99.90;;;;;;5031884;28;20123;-61
2021/03/02 11:39:03;;;;;;;15.38;5.60;;;13.40;99.90;;;;;;5036695;28;20129;-62
2021/03/02 11:41:29;;;;;;;13.35;5.43;;;13.60;99.90;;;;;;5049120;28;20041;-62
2021/03/02 11:43:54;;;;;;;10.23;5.80;;;13.50;99.90;;;;;;5030115;28;20028;-62
2021/03/02 11:46:20;;;;;;;14.10;5.70;;;13.50;99.90;;;;;;5031870;28;20048;-61
2021/03/02 11:48:46;;;;;;;21.40;5.57;;;13.50;99.90;;;;;;5037198;28;20538;-61
2021/03/02 11:51:11;;;;;;;10.43;5.40;;;13.40;99.90;;;;;;5044975;28;20519;-61
2021/03/02 11:53:37;;;;;;;15.00;5.40;;;13.50;99.90;;;;;;5045703;28;20063;-62
2021/03/02 11:56:03;;;;;;;16.20;5.05;;;13.60;99.90;;;;;;5045363;28;20045;-61
2021/03/02 11:58:29;;;;;;;15.77;5.68;;;13.60;99.90;;;;;;5046463;28;20025;-62
2021/03/02 12:00:55;;;;;;;14.60;5.85;;;13.60;99.90;;;;;;5033889;28;20025;-61
2021/03/02 12:03:21;;;;;;;17.15;5.82;;;13.60;99.90;;;;;;5036996;28;20062;-61
2021/03/02 12:05:47;;;;;;;16.20;6.10;;;13.70;99.90;;;;;;5042159;28;20056;-62
2021/03/02 12:08:13;;;;;;;15.90;6.57;;;13.50;99.90;;;;;;5044487;28;20048;-62
2021/03/02 12:10:39;;;;;;;27.52;6.70;;;13.50;99.90;;;;;;5030722;28;20095;-61
2021/03/02 12:13:06;;;;;;;11.65;5.60;;;13.50;99.90;;;;;;5032595;28;20955;-61
2021/03/02 12:15:31;;;;;;;12.68;5.32;;;13.50;99.90;;;;;;5040402;28;20025;-61
2021/03/02 12:17:57;;;;;;;19.52;6.55;;;13.50;99.90;;;;;;5047820;28;20039;-62
2021/03/02 12:20:22;;;;;;;13.63;7.03;;;13.60;99.90;;;;;;5041737;28;20028;-62
2021/03/02 12:22:48;;;;;;;14.77;6.18;;;13.50;99.90;;;;;;5047495;28;20036;-62
2021/03/02 12:25:14;;;;;;;11.93;5.45;;;13.50;99.90;;;;;;5041000;28;20032;-62
2021/03/02 12:27:40;;;;;;;16.55;6.10;;;13.50;99.90;;;;;;5048669;28;20033;-61
2021/03/02 12:30:07;;;;;;;15.73;5.78;;;13.50;99.90;;;;;;5041087;28;20021;-61
2021/03/02 12:32:34;;;;;;;24.65;6.57;;;13.50;99.90;;;;;;5049765;28;20517;-61
2021/03/02 12:34:59;;;;;;;20.27;5.93;;;13.40;99.90;;;;;;5039948;28;20021;-62
2021/03/02 12:37:25;;;;;;;17.48;6.40;;;13.50;99.90;;;;;;5048907;28;20078;-61
2021/03/02 12:39:51;;;;;;;16.20;6.13;;;13.40;99.90;;;;;;5039804;28;20036;-62
2021/03/02 12:42:17;;;;;;;21.30;6.07;;;13.40;99.90;;;;;;5050871;28;20481;-62
2021/03/02 12:44:42;;;;;;;18.02;6.80;;;13.40;99.90;;;;;;5035651;28;20060;-62